createdAt,value
2023-04-27T00:02:04.884Z,100332.75
2023-04-27T00:04:32.855Z,100317.56
2023-04-27T00:07:00.210Z,100326.34
2023-04-27T00:09:27.370Z,100328.53
2023-04-27T00:11:55.394Z,100326.75
2023-04-27T00:14:22.917Z,100321.28
2023-04-27T00:16:50.364Z,100324.53
2023-04-27T00:19:17.944Z,100327.34
2023-04-27T00:21:45.187Z,100326.84
2023-04-27T00:24:12.493Z,100328.53
2023-04-27T00:26:40.020Z,100334.28
2023-04-27T00:29:07.352Z,100323.62
2023-04-27T00:31:34.589Z,100327.84
2023-04-27T00:34:02.766Z,100328.28
2023-04-27T00:36:30.076Z,100327.84
2023-04-27T00:38:57.230Z,100319.84
2023-04-27T00:41:24.908Z,100322.41
2023-04-27T00:43:52.109Z,100321.41
2023-04-27T00:46:19.967Z,100327.16
2023-04-27T00:48:47.877Z,100319.94
2023-04-27T00:51:15.148Z,100322.88
2023-04-27T00:53:42.397Z,100321.84
2023-04-27T00:56:09.840Z,100316.38
2023-04-27T00:58:37.265Z,100322.53
2023-04-27T01:01:05.847Z,100318.59
2023-04-27T01:03:33.356Z,100314.44
2023-04-27T01:06:01.906Z,100320.62
2023-04-27T01:08:29.718Z,100317.06
2023-04-27T01:10:57.260Z,100315.53
2023-04-27T01:13:24.656Z,100323.50
2023-04-27T01:15:51.825Z,100319.00
2023-04-27T01:18:19.517Z,100316.47
2023-04-27T01:20:46.702Z,100329.66
2023-04-27T01:23:16.825Z,100330.31
2023-04-27T01:25:45.192Z,100333.03
2023-04-27T01:28:12.769Z,100337.06
2023-04-27T01:30:39.938Z,100344.66
2023-04-27T01:33:07.364Z,100345.84
2023-04-27T01:35:34.566Z,100342.25
2023-04-27T01:38:02.734Z,100349.66
2023-04-27T01:40:30.584Z,100347.59
2023-04-27T01:42:58.055Z,100343.53
2023-04-27T01:45:25.422Z,100351.28
2023-04-27T01:47:53.321Z,100347.47
2023-04-27T01:50:20.922Z,100341.87
2023-04-27T01:52:48.458Z,100344.97
2023-04-27T01:55:15.974Z,100343.31
2023-04-27T01:57:43.218Z,100344.91
2023-04-27T02:00:10.985Z,100343.62
2023-04-27T02:02:47.852Z,100353.91
2023-04-27T02:05:15.839Z,100342.56
2023-04-27T02:07:42.972Z,100342.56
2023-04-27T02:10:10.998Z,100346.41
2023-04-27T02:12:38.558Z,100347.19
2023-04-27T02:15:08.733Z,100348.13
2023-04-27T02:17:36.235Z,100356.53
2023-04-27T02:20:05.467Z,100351.38
2023-04-27T02:22:32.862Z,100350.53
2023-04-27T02:25:00.534Z,100358.06
2023-04-27T02:27:27.716Z,100363.16
2023-04-27T02:29:55.288Z,100359.75
2023-04-27T02:32:23.301Z,100361.44
2023-04-27T02:34:50.745Z,100358.25
2023-04-27T02:37:19.080Z,100366.37
2023-04-27T02:39:47.355Z,100364.94
2023-04-27T02:42:16.496Z,100373.44
2023-04-27T02:44:43.613Z,100366.69
2023-04-27T02:47:11.524Z,100369.75
2023-04-27T02:49:39.752Z,100368.38
2023-04-27T02:52:07.419Z,100369.44
2023-04-27T02:54:34.798Z,100373.13
2023-04-27T02:57:02.597Z,100372.97
2023-04-27T02:59:29.856Z,100373.47
2023-04-27T03:01:57.068Z,100382.66
2023-04-27T03:04:24.565Z,100386.13
2023-04-27T03:06:51.891Z,100380.50
2023-04-27T03:09:19.175Z,100389.16
2023-04-27T03:11:46.733Z,100386.00
2023-04-27T03:14:13.957Z,100388.25
2023-04-27T03:16:41.119Z,100385.69
2023-04-27T03:19:08.633Z,100388.72
2023-04-27T03:21:36.444Z,100391.03
2023-04-27T03:24:04.108Z,100394.25
2023-04-27T03:26:31.723Z,100394.34
2023-04-27T03:28:58.936Z,100399.25
2023-04-27T03:31:28.697Z,100399.41
2023-04-27T03:33:57.116Z,100399.94
2023-04-27T03:36:24.281Z,100404.16
2023-04-27T03:38:51.348Z,100413.69
2023-04-27T03:41:18.911Z,100415.31
2023-04-27T03:43:46.312Z,100408.16
2023-04-27T03:46:13.655Z,100406.75
2023-04-27T03:48:41.272Z,100413.66
2023-04-27T03:51:08.987Z,100422.84
2023-04-27T03:53:36.438Z,100411.84
2023-04-27T03:56:04.072Z,100416.75
2023-04-27T03:58:31.742Z,100414.28
2023-04-27T04:01:01.505Z,100423.91
2023-04-27T04:03:29.278Z,100423.37
2023-04-27T04:05:56.546Z,100423.97
2023-04-27T04:08:23.916Z,100424.50
2023-04-27T04:10:51.438Z,100424.16
2023-04-27T04:13:18.919Z,100427.37
2023-04-27T04:15:46.185Z,100430.41
2023-04-27T04:18:13.745Z,100431.38
2023-04-27T04:20:40.990Z,100437.13
2023-04-27T04:23:08.613Z,100439.56
2023-04-27T04:25:36.494Z,100439.06
2023-04-27T04:28:03.764Z,100438.75
2023-04-27T04:30:31.064Z,100441.41
2023-04-27T04:32:58.710Z,100440.94
2023-04-27T04:35:25.983Z,100445.47
2023-04-27T04:37:53.403Z,100448.31
2023-04-27T04:40:21.590Z,100438.84
2023-04-27T04:42:48.820Z,100446.72
2023-04-27T04:45:16.064Z,100453.41
2023-04-27T04:47:43.653Z,100449.81
2023-04-27T04:50:11.916Z,100458.75
2023-04-27T04:52:39.657Z,100448.72
2023-04-27T04:55:07.376Z,100451.56
2023-04-27T04:57:34.544Z,100461.00
2023-04-27T05:00:02.068Z,100462.41
2023-04-27T05:02:38.454Z,100460.44
2023-04-27T05:05:05.947Z,100465.00
2023-04-27T05:07:33.999Z,100470.94
2023-04-27T05:10:01.270Z,100474.00
2023-04-27T05:12:28.361Z,100469.66
2023-04-27T05:14:55.778Z,100481.84
2023-04-27T05:17:23.196Z,100479.94
2023-04-27T05:19:50.341Z,100486.25
2023-04-27T05:22:17.804Z,100491.28
2023-04-27T05:24:45.069Z,100493.09
2023-04-27T05:27:14.163Z,100499.03
2023-04-27T05:29:42.289Z,100495.56
2023-04-27T05:32:09.821Z,100505.25
2023-04-27T05:34:37.176Z,100501.50
2023-04-27T05:37:04.739Z,100503.53
2023-04-27T05:39:32.048Z,100508.28
2023-04-27T05:41:59.256Z,100510.88
2023-04-27T05:44:29.361Z,100516.56
2023-04-27T05:46:57.199Z,100533.00
2023-04-27T05:49:24.458Z,100531.50
2023-04-27T05:51:52.095Z,100536.75
2023-04-27T05:54:19.240Z,100542.28
2023-04-27T05:56:46.490Z,100546.00
2023-04-27T05:59:14.121Z,100554.75
2023-04-27T06:01:41.501Z,100568.59
2023-04-27T06:04:09.456Z,100564.31
2023-04-27T06:06:37.193Z,100566.00
2023-04-27T06:09:04.612Z,100574.69
2023-04-27T06:11:32.219Z,100573.25
2023-04-27T06:13:59.464Z,100575.91
2023-04-27T06:16:26.737Z,100572.06
2023-04-27T06:18:54.381Z,100563.94
2023-04-27T06:21:21.633Z,100570.28
2023-04-27T06:23:49.028Z,100570.25
2023-04-27T06:26:16.580Z,100578.41
2023-04-27T06:28:43.706Z,100573.00
2023-04-27T06:31:10.886Z,100570.72
2023-04-27T06:33:38.388Z,100577.84
2023-04-27T06:36:05.947Z,100574.06
2023-04-27T06:38:33.212Z,100573.19
2023-04-27T06:41:00.851Z,100575.38
2023-04-27T06:43:27.956Z,100567.97
2023-04-27T06:45:55.198Z,100564.28
2023-04-27T06:48:22.872Z,100566.34
2023-04-27T06:50:50.097Z,100557.97
2023-04-27T06:53:17.500Z,100550.06
2023-04-27T06:55:47.775Z,100568.53
2023-04-27T06:58:15.646Z,100571.19
2023-04-27T07:00:42.840Z,100567.22
2023-04-27T07:03:10.623Z,100563.78
2023-04-27T07:05:37.960Z,100566.56
2023-04-27T07:08:08.270Z,100578.00
2023-04-27T07:10:36.478Z,100572.34
2023-04-27T07:13:03.738Z,100573.53
2023-04-27T07:15:31.764Z,100572.53
2023-04-27T07:17:59.550Z,100583.75
2023-04-27T07:20:26.936Z,100576.97
2023-04-27T07:22:54.289Z,100586.06
2023-04-27T07:25:21.765Z,100574.44
2023-04-27T07:27:49.301Z,100581.28
2023-04-27T07:30:17.951Z,100579.47
2023-04-27T07:32:46.529Z,100576.94
2023-04-27T07:35:14.797Z,100583.72
2023-04-27T07:37:44.546Z,100574.66
2023-04-27T07:40:16.947Z,100579.56
2023-04-27T07:42:46.415Z,100576.63
2023-04-27T07:45:14.224Z,100576.31
2023-04-27T07:47:42.609Z,100567.06
2023-04-27T07:50:10.906Z,100567.16
2023-04-27T07:52:38.955Z,100568.31
2023-04-27T07:55:06.723Z,100573.50
2023-04-27T07:57:34.957Z,100570.56
2023-04-27T08:00:05.328Z,100574.19
2023-04-27T08:02:40.139Z,100579.47
2023-04-27T08:05:08.747Z,100570.41
2023-04-27T08:07:42.549Z,100575.78
2023-04-27T08:10:12.289Z,100573.56
2023-04-27T08:12:39.661Z,100581.19
2023-04-27T08:15:07.740Z,100578.47
2023-04-27T08:17:36.615Z,100574.19
2023-04-27T08:20:04.321Z,100575.66
2023-04-27T08:22:31.633Z,100576.91
2023-04-27T08:25:00.006Z,100574.34
2023-04-27T08:30:57.368Z,100585.81
2023-04-27T08:33:25.030Z,100579.75
2023-04-27T08:35:54.641Z,100577.00
2023-04-27T08:38:23.670Z,100569.44
2023-04-27T08:40:52.469Z,100575.28
2023-04-27T08:43:19.807Z,100578.09
2023-04-27T08:45:50.639Z,100580.69
2023-04-27T08:48:19.012Z,100573.03
2023-04-27T08:50:50.750Z,100581.91
2023-04-27T08:53:19.923Z,100574.84
2023-04-27T08:55:47.642Z,100574.84
2023-04-27T08:58:14.963Z,100573.59
2023-04-27T09:00:44.236Z,100563.94
2023-04-27T09:03:27.410Z,100558.03
2023-04-27T09:06:03.878Z,100554.06
2023-04-27T09:08:42.330Z,100560.28
2023-04-27T09:11:10.330Z,100556.56
2023-04-27T09:13:42.422Z,100556.22
2023-04-27T09:16:10.288Z,100552.41
2023-04-27T09:18:38.209Z,100553.16
2023-04-27T09:21:05.677Z,100557.50
2023-04-27T09:23:34.253Z,100549.09
2023-04-27T09:26:04.161Z,100550.16
2023-04-27T09:28:32.448Z,100549.47
2023-04-27T09:31:01.820Z,100544.91
2023-04-27T09:33:33.689Z,100546.97
2023-04-27T09:36:06.631Z,100544.66
2023-04-27T09:38:34.433Z,100542.37
2023-04-27T09:41:03.000Z,100545.00
2023-04-27T09:43:31.717Z,100538.87
2023-04-27T09:45:59.232Z,100539.41
2023-04-27T09:48:27.065Z,100536.38
2023-04-27T09:50:54.596Z,100540.00
2023-04-27T09:53:26.892Z,100530.59
2023-04-27T09:56:09.481Z,100533.97
2023-04-27T09:58:48.954Z,100536.91
2023-04-27T10:01:40.918Z,100530.94
2023-04-27T10:04:27.745Z,100526.88
2023-04-27T10:07:26.520Z,100515.19
2023-04-27T10:10:03.059Z,100515.28
2023-04-27T10:16:18.147Z,100513.94
2023-04-27T10:18:55.581Z,100511.84
2023-04-27T10:21:23.972Z,100511.06
2023-04-27T10:23:53.365Z,100509.28
2023-04-27T10:26:25.311Z,100511.47
2023-04-27T10:28:58.135Z,100521.69
2023-04-27T10:31:29.647Z,100514.47
2023-04-27T10:34:11.618Z,100513.53
2023-04-27T10:36:40.940Z,100515.28
2023-04-27T10:39:17.023Z,100502.59
2023-04-27T10:42:00.908Z,100507.75
2023-04-27T10:44:31.171Z,100506.50
2023-04-27T10:47:00.868Z,100499.75
2023-04-27T10:49:31.118Z,100502.13
2023-04-27T10:55:31.003Z,100517.19
2023-04-27T10:57:59.293Z,100511.84
2023-04-27T11:00:33.968Z,100506.72
2023-04-27T11:03:29.729Z,100513.44
2023-04-27T11:06:02.564Z,100509.59
2023-04-27T11:08:36.922Z,100514.94
2023-04-27T11:11:06.225Z,100516.25
2023-04-27T11:13:33.882Z,100513.16
2023-04-27T11:16:01.477Z,100493.66
2023-04-27T11:18:33.913Z,100506.22
2023-04-27T11:21:19.135Z,100509.88
2023-04-27T11:23:46.811Z,100508.37
2023-04-27T11:26:26.704Z,100501.75
2023-04-27T11:29:05.617Z,100500.19
2023-04-27T11:35:03.516Z,100505.66
2023-04-27T11:37:31.809Z,100495.06
2023-04-27T11:40:00.627Z,100498.00
2023-04-27T11:42:29.076Z,100498.34
2023-04-27T11:44:58.574Z,100495.69
2023-04-27T11:47:28.129Z,100490.00
2023-04-27T11:50:00.661Z,100497.59
2023-04-27T11:52:32.410Z,100497.50
2023-04-27T11:55:01.176Z,100491.16
2023-04-27T11:57:31.010Z,100487.22
2023-04-27T12:00:03.175Z,100504.50
2023-04-27T12:02:41.703Z,100503.03
2023-04-27T12:05:10.213Z,100490.41
2023-04-27T12:07:38.158Z,100495.06
2023-04-27T12:10:06.913Z,100495.63
2023-04-27T12:12:34.387Z,100494.28
2023-04-27T12:15:01.759Z,100497.69
2023-04-27T12:17:28.918Z,100491.13
2023-04-27T12:19:56.576Z,100496.09
2023-04-27T12:22:24.139Z,100494.34
2023-04-27T12:24:51.658Z,100495.22
2023-04-27T12:27:19.366Z,100483.41
2023-04-27T12:30:19.684Z,100485.16
2023-04-27T12:32:51.228Z,100490.63
2023-04-27T12:35:19.971Z,100493.22
2023-04-27T12:37:57.734Z,100482.13
2023-04-27T12:40:25.677Z,100493.38
2023-04-27T12:42:53.473Z,100484.31
2023-04-27T12:45:21.243Z,100487.50
2023-04-27T12:48:01.790Z,100494.28
2023-04-27T12:50:34.515Z,100488.97
2023-04-27T12:53:02.586Z,100482.25
2023-04-27T12:55:33.586Z,100476.59
2023-04-27T12:58:02.737Z,100493.44
2023-04-27T13:00:30.159Z,100487.50
2023-04-27T13:02:58.540Z,100479.66
2023-04-27T13:05:26.587Z,100490.72
2023-04-27T13:07:54.172Z,100490.06
2023-04-27T13:10:21.515Z,100498.34
2023-04-27T13:12:49.216Z,100495.16
2023-04-27T13:15:16.506Z,100484.16
2023-04-27T13:17:44.188Z,100490.66
2023-04-27T13:20:12.413Z,100486.31
2023-04-27T13:22:40.886Z,100492.00
2023-04-27T13:25:09.748Z,100491.16
2023-04-27T13:27:37.526Z,100484.84
2023-04-27T13:30:05.497Z,100488.44
2023-04-27T13:32:32.978Z,100494.03
2023-04-27T13:35:00.789Z,100496.53
2023-04-27T13:37:28.161Z,100483.56
2023-04-27T13:39:55.488Z,100492.19
2023-04-27T13:42:29.403Z,100482.03
2023-04-27T13:44:57.290Z,100489.22
2023-04-27T13:47:24.927Z,100476.00
2023-04-27T13:49:52.242Z,100477.91
2023-04-27T13:52:19.728Z,100478.91
2023-04-27T13:54:47.268Z,100480.03
2023-04-27T13:57:14.600Z,100479.69
2023-04-27T13:59:42.095Z,100481.63
2023-04-27T14:02:09.619Z,100480.25
2023-04-27T14:04:37.263Z,100480.09
2023-04-27T14:07:04.613Z,100474.53
2023-04-27T14:09:32.026Z,100473.94
2023-04-27T14:12:00.414Z,100479.12
2023-04-27T14:14:27.690Z,100477.81
2023-04-27T14:16:55.357Z,100483.03
2023-04-27T14:19:23.081Z,100475.97
2023-04-27T14:21:51.247Z,100480.16
2023-04-27T14:24:18.912Z,100493.75
2023-04-27T14:26:47.682Z,100489.31
2023-04-27T14:29:15.560Z,100489.44
2023-04-27T14:31:43.604Z,100487.31
2023-04-27T14:34:11.354Z,100484.94
2023-04-27T14:36:38.864Z,100494.44
2023-04-27T14:39:06.873Z,100492.19
2023-04-27T14:41:35.896Z,100493.25
2023-04-27T14:44:07.638Z,100489.28
2023-04-27T14:46:35.386Z,100493.63
2023-04-27T14:49:02.756Z,100489.25
2023-04-27T14:51:30.250Z,100484.50
2023-04-27T14:53:57.860Z,100496.44
2023-04-27T14:56:25.324Z,100500.25
2023-04-27T14:58:52.537Z,100491.63
2023-04-27T15:01:20.114Z,100498.53
2023-04-27T15:03:47.614Z,100506.94
2023-04-27T15:06:15.219Z,100510.75
2023-04-27T15:08:42.835Z,100489.84
2023-04-27T15:11:10.146Z,100496.22
2023-04-27T15:13:37.428Z,100496.03
2023-04-27T15:16:07.327Z,100503.25
2023-04-27T15:18:35.430Z,100498.81
2023-04-27T15:21:02.925Z,100497.31
2023-04-27T15:23:30.511Z,100483.34
2023-04-27T15:25:58.633Z,100490.59
2023-04-27T15:28:26.352Z,100506.00
2023-04-27T15:30:53.921Z,100487.56
2023-04-27T15:33:21.228Z,100493.09
2023-04-27T15:35:51.011Z,100490.44
2023-04-27T15:38:23.599Z,100497.41
2023-04-27T15:40:51.264Z,100494.59
2023-04-27T15:43:19.162Z,100492.03
2023-04-27T15:45:46.573Z,100495.69
2023-04-27T15:48:14.230Z,100493.81
2023-04-27T15:50:42.173Z,100487.56
2023-04-27T15:53:09.465Z,100490.84
2023-04-27T15:55:40.563Z,100491.69
2023-04-27T15:58:11.066Z,100496.72
2023-04-27T16:00:38.512Z,100488.06
2023-04-27T16:03:09.425Z,100494.53
2023-04-27T16:05:38.152Z,100494.34
2023-04-27T16:08:06.209Z,100495.47
2023-04-27T16:10:34.019Z,100486.56
2023-04-27T16:13:01.722Z,100490.53
2023-04-27T16:15:29.670Z,100488.88
2023-04-27T16:17:57.186Z,100485.66
2023-04-27T16:20:25.566Z,100502.16
2023-04-27T16:22:57.164Z,100506.19
2023-04-27T16:25:24.460Z,100498.53
2023-04-27T16:27:52.321Z,100501.59
2023-04-27T16:30:20.205Z,100502.44
2023-04-27T16:32:48.197Z,100504.38
2023-04-27T16:35:15.569Z,100508.28
2023-04-27T16:37:43.187Z,100505.94
2023-04-27T16:40:11.106Z,100507.59
2023-04-27T16:42:38.712Z,100501.87
2023-04-27T16:45:09.075Z,100504.69
2023-04-27T16:47:38.449Z,100505.78
2023-04-27T16:50:06.764Z,100515.81
2023-04-27T16:52:34.061Z,100509.81
2023-04-27T16:55:01.480Z,100510.53
2023-04-27T16:57:29.178Z,100511.34
2023-04-27T16:59:56.488Z,100519.25
2023-04-27T17:02:25.628Z,100514.94
2023-04-27T17:04:57.761Z,100521.34
2023-04-27T17:07:28.694Z,100516.59
2023-04-27T17:09:56.395Z,100515.03
2023-04-27T17:12:23.716Z,100523.09
2023-04-27T17:14:51.061Z,100533.81
2023-04-27T17:17:18.666Z,100525.28
2023-04-27T17:19:46.647Z,100521.34
2023-04-27T17:22:14.966Z,100519.66
2023-04-27T17:24:42.370Z,100531.22
2023-04-27T17:27:09.891Z,100533.56
2023-04-27T17:29:37.504Z,100533.62
2023-04-27T17:32:05.758Z,100533.59
2023-04-27T17:34:33.250Z,100536.91
2023-04-27T17:37:00.906Z,100539.34
2023-04-27T17:39:28.847Z,100542.06
2023-04-27T17:41:57.093Z,100535.53
2023-04-27T17:44:24.506Z,100539.56
2023-04-27T17:46:52.505Z,100543.41
2023-04-27T17:49:19.729Z,100546.13
2023-04-27T17:51:48.557Z,100539.06
2023-04-27T17:54:16.218Z,100544.50
2023-04-27T17:56:44.453Z,100551.19
2023-04-27T17:59:11.760Z,100545.09
2023-04-27T18:01:39.574Z,100545.84
2023-04-27T18:04:07.530Z,100547.31
2023-04-27T18:06:35.216Z,100554.41
2023-04-27T18:09:03.212Z,100554.41
2023-04-27T18:11:30.750Z,100555.37
2023-04-27T18:13:59.749Z,100556.81
2023-04-27T18:16:27.462Z,100562.94
2023-04-27T18:18:56.849Z,100564.38
2023-04-27T18:21:30.044Z,100559.41
2023-04-27T18:23:58.283Z,100572.81
2023-04-27T18:26:25.837Z,100575.91
2023-04-27T18:28:53.887Z,100573.34
2023-04-27T18:31:24.285Z,100576.78
2023-04-27T18:33:52.216Z,100572.66
2023-04-27T18:36:21.204Z,100586.75
2023-04-27T18:38:48.919Z,100576.84
2023-04-27T18:41:16.779Z,100575.75
2023-04-27T18:43:44.281Z,100577.03
2023-04-27T18:46:12.379Z,100581.25
2023-04-27T18:48:41.224Z,100588.91
2023-04-27T18:51:09.140Z,100598.19
2023-04-27T18:53:37.383Z,100598.75
2023-04-27T18:56:06.349Z,100594.00
2023-04-27T18:58:35.035Z,100601.16
2023-04-27T19:01:03.440Z,100596.56
2023-04-27T19:03:31.348Z,100600.53
2023-04-27T19:06:00.901Z,100601.19
2023-04-27T19:08:29.173Z,100602.03
2023-04-27T19:10:58.461Z,100606.47
2023-04-27T19:13:25.992Z,100610.37
2023-04-27T19:15:53.644Z,100608.97
2023-04-27T19:18:21.185Z,100617.59
2023-04-27T19:20:49.599Z,100612.00
2023-04-27T19:23:20.312Z,100611.44
2023-04-27T19:25:48.424Z,100615.41
2023-04-27T19:28:16.814Z,100622.09
2023-04-27T19:30:48.204Z,100619.87
2023-04-27T19:33:19.661Z,100626.31
2023-04-27T19:35:48.728Z,100630.63
2023-04-27T19:38:16.161Z,100621.44
2023-04-27T19:40:43.564Z,100627.66
2023-04-27T19:43:12.124Z,100624.19
2023-04-27T19:45:42.152Z,100618.44
2023-04-27T19:48:10.317Z,100621.28
2023-04-27T19:50:41.890Z,100619.22
2023-04-27T19:53:10.248Z,100619.87
2023-04-27T19:55:38.229Z,100618.38
2023-04-27T19:58:05.565Z,100617.94
2023-04-27T20:00:33.656Z,100627.16
2023-04-27T20:03:01.490Z,100620.91
2023-04-27T20:05:29.164Z,100624.56
2023-04-27T20:07:57.356Z,100618.19
2023-04-27T20:10:24.928Z,100621.38
2023-04-27T20:12:56.824Z,100618.75
2023-04-27T20:15:25.895Z,100623.66
2023-04-27T20:17:53.898Z,100629.94
2023-04-27T20:20:21.281Z,100621.03
2023-04-27T20:22:48.713Z,100626.09
2023-04-27T20:25:16.067Z,100630.31
2023-04-27T20:27:43.335Z,100618.97
2023-04-27T20:30:11.701Z,100619.34
2023-04-27T20:32:41.754Z,100624.22
2023-04-27T20:35:11.917Z,100622.72
2023-04-27T20:41:01.235Z,100618.97
2023-04-27T20:46:59.593Z,100622.63
2023-04-27T20:53:15.249Z,100625.31
2023-04-27T20:59:30.273Z,100633.13
2023-04-27T21:25:52.075Z,100642.34
2023-04-27T21:38:29.589Z,100658.50
2023-04-27T21:58:21.078Z,100657.06
2023-04-27T22:00:48.806Z,100651.78
2023-04-27T22:13:23.175Z,100670.34
2023-04-27T22:19:38.163Z,100674.25
2023-04-27T22:25:57.105Z,100667.81
2023-04-27T22:32:11.183Z,100674.50
2023-04-27T23:05:38.672Z,100691.25
2023-04-27T23:08:06.835Z,100693.00
2023-04-27T23:10:34.929Z,100693.09
2023-04-27T23:13:04.341Z,100690.22
2023-04-27T23:15:31.824Z,100694.69
2023-04-27T23:17:59.304Z,100694.03
2023-04-27T23:20:28.670Z,100682.94
2023-04-27T23:22:56.921Z,100691.47
2023-04-27T23:25:24.335Z,100688.00
2023-04-27T23:27:52.577Z,100686.62
2023-04-27T23:30:21.608Z,100686.12
2023-04-27T23:32:49.050Z,100690.28
2023-04-27T23:35:16.422Z,100682.56
2023-04-27T23:37:44.432Z,100690.19
2023-04-27T23:40:12.361Z,100691.31
2023-04-27T23:42:39.558Z,100693.06
2023-04-27T23:45:07.550Z,100687.94
2023-04-27T23:47:34.880Z,100689.91
2023-04-27T23:50:05.124Z,100700.12
2023-04-27T23:52:32.725Z,100695.81
2023-04-27T23:55:00.026Z,100701.50
2023-04-27T23:57:27.204Z,100706.06
2023-04-27T23:59:54.684Z,100698.22
